Flight Track Log - Related Links

Times and Time Zones

All times are in EST time to prevent confusion due to time zone crossing. See the VLC140 flight status page for this flight to view local times or setup timezone preferences in your user account.

Time Position Orientation Groundspeed Altitude Reporting Facility
EST Latitude Longitude Course Direction KTS MPH feet Rate Location/Type
Thu 12:04:48 PM 51.0500 -114.0500 122° Southeast 200 230 6,600  Level Edmonton Center
Thu 12:05:48 PM 50.9833 -114.0333 171° South 250 288 9,600 3,350 Climbing Edmonton Center
Thu 12:06:48 PM 50.9000 -114.0000 166° South 290 334 13,300 3,650 Climbing Edmonton Center
Thu 12:07:48 PM 50.8833 -113.8833 103° East 320 368 16,900 3,400 Climbing Edmonton Center
Thu 12:08:48 PM 50.8667 -113.7167 99° East 320 368 20,100 2,900 Climbing Edmonton Center
Thu 12:09:48 PM 50.8833 -113.5833 79° East 330 380 22,700 2,750 Climbing Edmonton Center
Thu 12:10:00 PM 51.0886 -112.6849 122° Southeast  Level Estimated
Thu 12:10:48 PM 50.8833 -113.4333 90° East 350 403 25,600  Level Edmonton Center
Thu 12:11:48 PM 50.8833 -113.2667 90° East 360 414 27,800 2,350 Climbing Edmonton Center
Thu 12:12:48 PM 50.8667 -113.1000 99° East 370 426 30,300 2,100 Climbing Edmonton Center
Thu 12:13:48 PM 50.8667 -112.9333 90° East 380 437 32,000 1,850 Climbing Edmonton Center
Thu 12:14:48 PM 50.8667 -112.7833 90° East 390 449 34,000 1,650 Climbing Edmonton Center
Thu 12:15:48 PM 50.8500 -112.5833 97° East 380 437 35,300 1,350 Climbing Edmonton Center
Thu 12:16:48 PM 50.8500 -112.4333 90° East 390 449 36,700 1,250 Climbing Edmonton Center
Thu 12:17:48 PM 50.8500 -112.2333 90° East 380 437 37,800 1,050 Climbing Edmonton Center
Thu 12:18:48 PM 50.8333 -112.0833 100° East 380 437 38,800 1,000 Climbing Edmonton Center
Thu 12:19:48 PM 50.8333 -111.9167 90° East 390 449 39,800 1,000 Climbing Edmonton Center
Thu 12:20:48 PM 50.8500 -111.7333 82° East 380 437 40,800 600 Climbing Edmonton Center
Thu 12:21:48 PM 50.8333 -111.5667 99° East 390 449 41,000 100 Climbing Edmonton Center
Thu 12:22:48 PM 50.8333 -111.3833 90° East 400 460 41,000  Level Edmonton Center
Thu 12:23:48 PM 50.8167 -111.2167 99° East 410 472 41,000  Level Edmonton Center
Thu 12:24:48 PM 50.8167 -111.0333 90° East 430 495 41,000  Level Edmonton Center
Thu 12:25:48 PM 50.8167 -110.8167 90° East 440 506 41,000  Level Edmonton Center
Thu 12:26:48 PM 50.8000 -110.6333 98° East 440 506 41,000  Level Edmonton Center
Thu 12:27:48 PM 50.8000 -110.4167 90° East 450 518 41,000  Level Edmonton Center
Thu 12:28:48 PM 50.7833 -110.2167 97° East 450 518 41,000  Level Edmonton Center
Thu 12:29:48 PM 50.7833 -110.0333 90° East 450 518 41,000  Level Edmonton Center
Thu 12:30:48 PM 50.7667 -109.8167 97° East 450 518 41,000  Level Edmonton Center
Thu 12:31:48 PM 50.7500 -109.6333 98° East 450 518 41,000  Level Edmonton Center
Thu 12:32:48 PM 50.7500 -109.4167 90° East 450 518 41,000  Level Edmonton Center
Thu 12:33:48 PM 50.7333 -109.2333 98° East 450 518 41,000  Level Edmonton Center
Thu 12:34:48 PM 50.7167 -109.0167 97° East 450 518 41,000  Level Edmonton Center
Thu 12:35:50 PM 50.7167 -108.8500 90° East 460 529 41,000  Level Winnipeg Center
Thu 12:36:50 PM 50.7167 -108.6500 90° East 460 529 41,000  Level Winnipeg Center
Thu 12:37:50 PM 50.7000 -108.4667 98° East 460 529 41,000  Level Winnipeg Center
Thu 12:38:50 PM 50.7000 -108.2833 90° East 460 529 41,000  Level Winnipeg Center
Thu 12:39:50 PM 50.6833 -108.0333 96° East 460 529 41,000  Level Winnipeg Center
Thu 12:40:50 PM 50.6667 -107.8500 98° East 460 529 41,000  Level Winnipeg Center
Thu 12:41:50 PM 50.6500 -107.6500 97° East 470 541 41,000  Level Winnipeg Center
Thu 12:42:50 PM 50.6500 -107.4333 90° East 460 529 41,000  Level Winnipeg Center
Thu 12:43:50 PM 50.6333 -107.2500 98° East 470 541 41,000  Level Winnipeg Center
Thu 12:44:50 PM 50.6167 -107.0333 97° East 460 529 41,000  Level Winnipeg Center
Thu 12:45:50 PM 50.6000 -106.8500 98° East 470 541 41,000  Level Winnipeg Center
Thu 12:46:50 PM 50.5833 -106.6333 97° East 460 529 41,000  Level Winnipeg Center
Thu 12:47:50 PM 50.5667 -106.4167 97° East 470 541 41,000  Level Winnipeg Center
Thu 12:48:50 PM 50.5667 -106.2333 90° East 470 541 41,000  Level Winnipeg Center
Thu 12:49:50 PM 50.5500 -106.0333 97° East 470 541 41,000  Level Winnipeg Center
Thu 12:50:50 PM 50.5333 -105.8167 97° East 470 541 41,000  Level Winnipeg Center
Thu 12:51:50 PM 50.5000 -105.6333 106° East 470 541 41,000  Level Winnipeg Center
Thu 12:52:50 PM 50.4833 -105.4167 97° East 470 541 41,000  Level Winnipeg Center
Thu 12:53:50 PM 50.4667 -105.2000 97° East 470 541 41,000  Level Winnipeg Center
Thu 12:54:51 PM 50.4500 -105.0167 98° East 470 541 41,000  Level Winnipeg Center
Thu 12:55:50 PM 50.4333 -104.8000 97° East 470 541 41,000  Level Winnipeg Center
Thu 12:56:50 PM 50.4167 -104.5833 97° East 480 552 41,000  Level Winnipeg Center
Thu 12:57:50 PM 50.4000 -104.4000 98° East 470 541 41,000  Level Winnipeg Center
Thu 12:58:50 PM 50.3667 -104.1833 103° East 480 552 41,000  Level Winnipeg Center
Thu 12:59:51 PM 50.3500 -103.9667 97° East 480 552 41,000  Level Winnipeg Center
Thu 01:00:50 PM 50.3333 -103.7667 97° East 480 552 41,000  Level Winnipeg Center
Thu 01:01:50 PM 50.3333 -103.5833 90° East 470 541 41,000  Level Winnipeg Center
Thu 01:02:50 PM 50.3000 -103.3667 103° East 480 552 41,000  Level Winnipeg Center
Thu 01:03:50 PM 50.2833 -103.1500 97° East 480 552 41,000  Level Winnipeg Center
Thu 01:04:51 PM 50.2667 -102.9667 98° East 480 552 41,000  Level Winnipeg Center
Thu 01:05:50 PM 50.2333 -102.7500 103° East 470 541 41,000  Level Winnipeg Center
Thu 01:06:50 PM 50.2167 -102.5667 98° East 470 541 41,000  Level Winnipeg Center
Thu 01:07:50 PM 50.1833 -102.3333 102° East 480 552 41,000  Level Winnipeg Center
Thu 01:08:50 PM 50.1667 -102.1333 97° East 480 552 41,000  Level Winnipeg Center
Thu 01:09:51 PM 50.1333 -101.9333 105° East 480 552 41,000  Level Winnipeg Center
Thu 01:10:50 PM 50.1167 -101.7167 97° East 480 552 41,000  Level Winnipeg Center
Thu 01:11:50 PM 50.0833 -101.5333 106° East 480 552 41,000  Level Winnipeg Center
Thu 01:12:50 PM 50.0667 -101.3167 97° East 480 552 41,000  Level Winnipeg Center
Thu 01:13:50 PM 50.0333 -101.1333 106° East 480 552 41,000  Level Winnipeg Center
Thu 01:14:50 PM 50.0167 -100.9000 96° East 480 552 41,000  Level Winnipeg Center
Thu 01:15:50 PM 49.9833 -100.7167 106° East 480 552 41,000  Level Winnipeg Center
Thu 01:16:50 PM 49.9667 -100.5000 97° East 480 552 41,000  Level Winnipeg Center
Thu 01:17:50 PM 49.9333 -100.3000 104° East 480 552 41,000  Level Winnipeg Center
Thu 01:18:50 PM 49.9000 -100.0833 103° East 480 552 41,000  Level Winnipeg Center
Thu 01:19:50 PM 49.9000 -99.9000 90° East 480 552 41,000  Level Winnipeg Center
Thu 01:20:50 PM 49.8667 -99.6833 103° East 480 552 41,000  Level Winnipeg Center
Thu 01:21:50 PM 49.8333 -99.4833 104° East 490 564 41,000  Level Winnipeg Center
Thu 01:22:50 PM 49.8167 -99.2667 97° East 480 552 41,000  Level Winnipeg Center
Thu 01:23:50 PM 49.8000 -99.0667 97° East 480 552 41,000  Level Winnipeg Center
Thu 01:24:50 PM 49.7667 -98.8500 103° East 490 564 41,000  Level Winnipeg Center
Thu 01:25:50 PM 49.7500 -98.6500 97° East 480 552 41,000  Level Winnipeg Center
Thu 01:26:51 PM 49.7167 -98.4333 103° East 490 564 41,000  Level Winnipeg Center
Thu 01:27:51 PM 49.6833 -98.2333 104° East 480 552 41,000 750 Level Winnipeg Center
Thu 01:28:51 PM 49.6667 -98.0500 98° East 470 541 42,500 1,550 Climbing Winnipeg Center
Thu 01:29:51 PM 49.6333 -97.8667 106° East 440 506 44,100 1,100 Climbing Winnipeg Center
Thu 01:30:51 PM 49.6333 -97.6833 90° East 430 495 44,700 450 Climbing Winnipeg Center
Thu 01:31:51 PM 49.6000 -97.5000 106° East 430 495 45,000 151 Climbing Winnipeg Center
Thu 01:32:50 PM 49.5833 -97.3333 99° East 440 506 45,000  Level Winnipeg Center
Thu 01:33:50 PM 49.5500 -97.1167 103° East 450 518 45,000  Level Winnipeg Center
Thu 01:34:51 PM 49.5333 -96.9333 98° East 460 529 45,000  Level Winnipeg Center
Thu 01:35:50 PM 49.5000 -96.7333 104° East 470 541 45,000  Level Winnipeg Center
Thu 01:36:50 PM 49.4833 -96.5333 97° East 470 541 45,000  Level Winnipeg Center
Thu 01:37:50 PM 49.4500 -96.3167 103° East 470 541 45,000  Level Winnipeg Center
Thu 01:38:51 PM 49.4167 -96.1500 107° East 470 541 45,000  Level Winnipeg Center
Thu 01:39:51 PM 49.3833 -95.9333 103° East 470 541 45,000  Level Winnipeg Center
Thu 01:40:51 PM 49.3500 -95.7333 104° East 470 541 45,000  Level Winnipeg Center
Thu 01:41:51 PM 49.3333 -95.5500 98° East 470 541 45,000  Level Winnipeg Center
Thu 01:42:51 PM 49.3000 -95.3500 104° East 470 541 45,000  Level Winnipeg Center
Thu 01:43:51 PM 49.2833 -95.1500 97° East 480 552 45,000  Level Winnipeg Center
Thu 01:44:51 PM 49.2500 -94.9500 104° East 480 552 45,000  Level Winnipeg Center
Thu 01:45:51 PM 49.2000 -94.7667 113° Southeast 480 552 45,000  Level Winnipeg Center
Thu 01:46:51 PM 49.1833 -94.5667 97° East 480 552 45,000  Level Winnipeg Center
Thu 01:47:50 PM 49.1500 -94.3500 103° East 480 552 45,000  Level Winnipeg Center
Thu 01:48:50 PM 49.1000 -94.1500 111° Southeast 480 552 45,000  Level Winnipeg Center
Thu 01:49:50 PM 49.0833 -93.9500 97° East 480 552 45,000  Level Winnipeg Center
Thu 01:50:50 PM 49.0500 -93.7833 107° East 480 552 45,000  Level Winnipeg Center
Thu 01:51:50 PM 49.0000 -93.5500 108° East 480 552 45,000  Level Winnipeg Center
Thu 01:52:50 PM 48.9833 -93.3667 98° East 470 541 45,000  Level Winnipeg Center
Thu 01:53:51 PM 48.9500 -93.1667 104° East 480 552 45,000  Level Winnipeg Center
Thu 01:54:51 PM 48.9167 -92.9667 104° East 480 552 45,000  Level Winnipeg Center
Thu 01:55:51 PM 48.8833 -92.8000 107° East 470 541 45,000  Level Winnipeg Center
Thu 01:56:51 PM 48.8500 -92.6000 104° East 470 541 45,000  Level Winnipeg Center
Thu 01:57:51 PM 48.8167 -92.4000 104° East 470 541 45,000  Level Winnipeg Center
Thu 01:58:51 PM 48.7667 -92.2000 111° Southeast 480 552 45,000  Level Winnipeg Center
Thu 01:59:51 PM 48.7500 -92.0167 98° East 480 552 45,000  Level Winnipeg Center
Thu 02:00:51 PM 48.7000 -91.8000 109° East 480 552 45,000  Level Winnipeg Center
Thu 02:01:51 PM 48.6667 -91.6167 105° East 480 552 45,000  Level Winnipeg Center
Thu 02:02:51 PM 48.6167 -91.4167 111° Southeast 480 552 45,000  Level Winnipeg Center
Thu 02:03:51 PM 48.5833 -91.2333 105° East 480 552 45,000  Level Winnipeg Center
Thu 02:04:51 PM 48.5333 -91.0500 112° Southeast 480 552 45,000  Level Winnipeg Center
Thu 02:05:51 PM 48.4833 -90.8667 112° Southeast 480 552 45,000  Level Winnipeg Center
Thu 02:06:51 PM 48.4500 -90.6667 104° East 480 552 45,000  Level Winnipeg Center
Thu 02:07:51 PM 48.4000 -90.4833 112° Southeast 470 541 45,000  Level Winnipeg Center
Thu 02:08:51 PM 48.3500 -90.3000 112° Southeast 470 541 45,000  Level Winnipeg Center
Thu 02:09:51 PM 48.3167 -90.1000 104° East 470 541 45,000  Level Winnipeg Center
Thu 02:10:51 PM 48.2667 -89.9333 114° Southeast 470 541 45,000  Level Winnipeg Center
Thu 02:11:51 PM 48.2167 -89.7667 114° Southeast 470 541 45,000  Level Winnipeg Center
Thu 02:12:51 PM 48.1833 -89.5667 104° East 480 552 45,000  Level Winnipeg Center
Thu 02:13:51 PM 48.1333 -89.3667 110° East 480 552 45,000  Level Winnipeg Center
Thu 02:14:51 PM 48.0833 -89.1833 112° Southeast 480 552 45,000  Level Winnipeg Center
Thu 02:15:51 PM 48.0333 -89.0167 114° Southeast 480 552 45,000  Level Winnipeg Center
Thu 02:16:51 PM 47.9667 -88.8000 115° Southeast 480 552 45,000  Level Winnipeg Center
Thu 02:17:51 PM 47.9167 -88.6333 114° Southeast 480 552 45,000  Level Winnipeg Center
Thu 02:18:51 PM 47.8833 -88.4333 104° East 490 564 45,000  Level Winnipeg Center
Thu 02:19:51 PM 47.8333 -88.2500 112° Southeast 490 564 45,000  Level Winnipeg Center
Thu 02:20:51 PM 47.7833 -88.0833 114° Southeast 490 564 45,000  Level Winnipeg Center
Thu 02:21:51 PM 47.7333 -87.8667 109° East 490 564 45,000  Level Winnipeg Center
Thu 02:22:51 PM 47.6833 -87.7000 114° Southeast 490 564 45,000  Level Winnipeg Center
Thu 02:23:51 PM 47.6333 -87.5000 110° East 490 564 45,000  Level Winnipeg Center
Thu 02:24:51 PM 47.5833 -87.3167 112° Southeast 490 564 45,000  Level Winnipeg Center
Thu 02:25:51 PM 47.5333 -87.1333 112° Southeast 490 564 45,000  Level Winnipeg Center
Thu 02:26:51 PM 47.4667 -86.9333 116° Southeast 480 552 45,000  Level Winnipeg Center
Thu 02:27:51 PM 47.4167 -86.7500 112° Southeast 480 552 45,000  Level Winnipeg Center
Thu 02:28:51 PM 47.3667 -86.5833 114° Southeast 480 552 45,000  Level Winnipeg Center
Thu 02:29:32 PM 47.3500 -86.5000 106° East 480 552 45,000  Level Toronto Center
Thu 02:30:32 PM 47.2833 -86.3500 123° Southeast 480 552 45,000  Level Toronto Center
Thu 02:31:32 PM 47.2333 -86.1333 109° East 480 552 45,000  Level Toronto Center
Thu 02:32:32 PM 47.2000 -85.9667 106° East 480 552 45,000  Level Toronto Center
Thu 02:33:32 PM 47.1333 -85.7833 118° Southeast 480 552 45,000  Level Toronto Center
Thu 02:34:32 PM 47.0833 -85.6000 112° Southeast 480 552 45,000  Level Toronto Center
Thu 02:35:32 PM 47.0167 -85.4333 120° Southeast 480 552 45,000  Level Toronto Center
Thu 02:36:32 PM 46.9667 -85.2500 112° Southeast 480 552 45,000  Level Toronto Center
Thu 02:37:32 PM 46.9167 -85.0833 114° Southeast 480 552 45,000  Level Toronto Center
Thu 02:38:32 PM 46.8667 -84.9000 112° Southeast 480 552 45,000  Level Toronto Center
Thu 02:39:32 PM 46.8000 -84.7167 118° Southeast 480 552 45,000  Level Toronto Center
Thu 02:40:32 PM 46.7667 -84.5500 106° East 480 552 45,000  Level Toronto Center
Thu 02:41:32 PM 46.7000 -84.3500 116° Southeast 480 552 45,000  Level Toronto Center
Thu 02:42:32 PM 46.6500 -84.1667 112° Southeast 480 552 45,000  Level Toronto Center
Thu 02:43:32 PM 46.5833 -84.0000 120° Southeast 490 564 45,000  Level Toronto Center
Thu 02:44:32 PM 46.5167 -83.8167 118° Southeast 490 564 45,000  Level Toronto Center
Thu 02:45:32 PM 46.4833 -83.6500 106° East 490 564 45,000  Level Toronto Center
Thu 02:46:32 PM 46.4167 -83.4833 120° Southeast 490 564 45,000  Level Toronto Center
Thu 02:47:32 PM 46.3500 -83.3000 118° Southeast 490 564 45,000  Level Toronto Center
Thu 02:48:32 PM 46.3000 -83.1000 110° East 490 564 45,000  Level Toronto Center
Thu 02:49:32 PM 46.2333 -82.9333 120° Southeast 490 564 45,000  Level Toronto Center
Thu 02:50:32 PM 46.1667 -82.7667 120° Southeast 490 564 45,000  Level Toronto Center
Thu 02:51:32 PM 46.1333 -82.5833 105° East 490 564 45,000  Level Toronto Center
Thu 02:52:32 PM 46.0667 -82.4167 120° Southeast 480 552 45,000  Level Toronto Center
Thu 02:53:32 PM 46.0000 -82.2167 116° Southeast 480 552 45,000  Level Toronto Center
Thu 02:54:32 PM 45.9500 -82.0833 118° Southeast 480 552 45,000  Level Toronto Center
Thu 02:55:32 PM 45.9000 -81.8833 110° East 480 552 45,000  Level Toronto Center
Thu 02:56:32 PM 45.8333 -81.7167 120° Southeast 480 552 45,000  Level Toronto Center
Thu 02:57:32 PM 45.7667 -81.5500 120° Southeast 480 552 45,000  Level Toronto Center
Thu 02:58:32 PM 45.7000 -81.3667 117° Southeast 480 552 45,000  Level Toronto Center
Thu 02:59:32 PM 45.6500 -81.2000 113° Southeast 480 552 45,000  Level Toronto Center
Thu 03:00:32 PM 45.5833 -81.0333 120° Southeast 490 564 45,000  Level Toronto Center
Thu 03:01:32 PM 45.5333 -80.8667 113° Southeast 480 552 45,000  Level Toronto Center
Thu 03:02:32 PM 45.4667 -80.6833 117° Southeast 490 564 45,000  Level Toronto Center
Thu 03:03:32 PM 45.4167 -80.5167 113° Southeast 480 552 45,000  Level Toronto Center
Thu 03:04:32 PM 45.3500 -80.3500 120° Southeast 480 552 45,000  Level Toronto Center
Thu 03:05:32 PM 45.2833 -80.1833 120° Southeast 480 552 45,000  Level Toronto Center
Thu 03:06:32 PM 45.2167 -80.0167 120° Southeast 490 564 45,000  Level Toronto Center
Thu 03:07:32 PM 45.1500 -79.8500 120° Southeast 490 564 45,000  Level Toronto Center
Thu 03:08:32 PM 45.1000 -79.6833 113° Southeast 490 564 45,000  Level Toronto Center
Thu 03:09:32 PM 45.0333 -79.4833 115° Southeast 500 575 45,000  Level Toronto Center
Thu 03:10:32 PM 44.9667 -79.3333 122° Southeast 490 564 45,000  Level Toronto Center
Thu 03:11:32 PM 44.9000 -79.1333 115° Southeast 500 575 45,000  Level Toronto Center
Thu 03:12:32 PM 44.8333 -78.9667 119° Southeast 490 564 45,000  Level Toronto Center
Thu 03:13:32 PM 44.7667 -78.8167 122° Southeast 500 575 45,000  Level Toronto Center
Thu 03:14:32 PM 44.7000 -78.6500 119° Southeast 490 564 45,000  Level Toronto Center
Thu 03:15:32 PM 44.6500 -78.4833 113° Southeast 490 564 45,000  Level Toronto Center
Thu 03:16:32 PM 44.5500 -78.3000 127° Southeast 490 564 45,000  Level Toronto Center
Thu 03:17:32 PM 44.5000 -78.1333 113° Southeast 490 564 45,000  Level Toronto Center
Thu 03:18:32 PM 44.4333 -77.9667 119° Southeast 500 575 45,000  Level Toronto Center
Thu 03:19:32 PM 44.3667 -77.7833 117° Southeast 500 575 45,000  Level Toronto Center
Thu 03:20:32 PM 44.3000 -77.6333 122° Southeast 500 575 45,000  Level Toronto Center
Thu 03:21:32 PM 44.2333 -77.4500 117° Southeast 490 564 45,000  Level Toronto Center
Thu 03:22:32 PM 44.1667 -77.2833 119° Southeast 490 564 45,000  Level Toronto Center
Thu 03:23:32 PM 44.1000 -77.1000 117° Southeast 490 564 45,000  Level Toronto Center
Thu 03:24:32 PM 44.0500 -76.9333 113° Southeast 490 564 45,000  Level Toronto Center
Thu 03:25:32 PM 43.9833 -76.7833 122° Southeast 480 552 45,000  Level Toronto Center
Thu 03:26:32 PM 43.9000 -76.6167 125° Southeast 480 552 45,000  Level Toronto Center
Thu 03:27:04 PM 43.8992 -76.5939 93° East 478 550 45,000  Level Boston Center
Thu 03:28:06 PM 43.8336 -76.4381 120° Southeast 470 541 45,000  Level Boston Center
Thu 03:29:06 PM 43.7664 -76.2803 120° Southeast 475 547 45,000 -581 Level Boston Center
Thu 03:30:10 PM 43.6850 -76.0914 121° Southeast 478 550 43,800 -1,790 Descending Boston Center
Thu 03:31:10 PM 43.6175 -75.9353 121° Southeast 477 549 41,300 -2,430 Descending Boston Center
Thu 03:32:11 PM 43.5514 -75.7847 121° Southeast 466 536 38,900 -2,371 Descending Boston Center
Thu 03:33:14 PM 43.4875 -75.6358 121° Southeast 458 527 36,400 -2,419 Descending Boston Center
Thu 03:34:15 PM 43.4197 -75.4814 121° Southeast 468 539 33,900 -2,410 Descending Boston Center
Thu 03:35:16 PM 43.3517 -75.3264 121° Southeast 479 551 31,500 -2,579 Descending Boston Center
Thu 03:36:16 PM 43.2744 -75.1553 122° Southeast 477 549 28,700 -2,565 Descending Boston Center
Thu 03:37:20 PM 43.2067 -75.0028 121° Southeast 473 544 26,200 -2,419 Descending Boston Center
Thu 03:38:20 PM 43.1372 -74.8514 122° Southeast 471 542 23,700 -2,430 Descending Boston Center
Thu 03:39:21 PM 43.0733 -74.7039 121° Southeast 455 524 21,300 -2,479 Descending Boston Center
Thu 03:40:21 PM 42.9994 -74.5414 122° Southeast 443 510 18,700 -1,597 Descending Boston Center
Thu 03:41:25 PM 42.9369 -74.4056 122° Southeast 423 487 18,000 -339 Descending Boston Center
Thu 03:42:25 PM 42.8744 -74.2686 122° Southeast 425 489 18,000  Level Boston Center
Thu 03:43:26 PM 42.8064 -74.1197 122° Southeast 431 496 18,000  Level Boston Center
Thu 03:44:29 PM 42.7425 -73.9817 122° Southeast 433 498 18,000  Level Boston Center
Thu 03:45:30 PM 42.6811 -73.8489 122° Southeast 424 488 18,000  Level Boston Center
Thu 03:46:30 PM 42.6153 -73.7067 122° Southeast 418 481 18,000  Level Boston Center
Thu 03:47:33 PM 42.5517 -73.5717 123° Southeast 427 491 18,000 -871 Level Boston Center
Thu 03:48:34 PM 42.4811 -73.4289 124° Southeast 423 487 16,200 -1,884 Descending Boston Center
Thu 03:49:34 PM 42.4058 -73.3258 135° Southeast 388 447 14,200 -1,915 Descending Boston Center
Thu 03:50:08 PM 42.3592 -73.2625 135° Southeast 390 449 13,200 -2,066 Descending Boston Center
Thu 03:50:35 PM 42.3267 -73.2133 132° Southeast 397 457 12,100 -1,889 Descending Boston Center
Thu 03:51:02 PM 42.2956 -73.1719 135° Southeast 392 451 11,500 -1,048 Descending Boston Center
Thu 03:51:38 PM 42.2519 -73.1083 133° Southeast 389 448 11,000 -476 Descending Boston Center
Thu 03:52:05 PM 42.2164 -73.0614 136° Southeast 387 445 11,000 -197 Level Boston Center
Thu 03:52:39 PM 42.2117 -72.9839 95° East 391 450 10,800 -885 Descending Boston Center
Thu 03:53:06 PM 42.2164 -72.9219 84° East 366 421 10,100 -1,655 Descending Boston Center
Thu 03:54:06 PM 42.2297 -72.8019 81° East 303 349 8,400 -2,132 Descending Boston Center
Thu 03:55:07 PM 42.2533 -72.6944 73° East 286 329 5,800 -2,459 Descending Boston Center
Thu 03:56:08 PM 42.2769 -72.5983 72° East 278 320 3,400 -1,500 Descending Boston Center
Thu 03:57:15 PM 42.2881 -72.5094 80° East 192 221 2,600 -703 Descending Boston Center
Thu 03:58:16 PM 42.2528 -72.4794 148° Southeast 139 160 1,900 -783 Descending Boston Center
Thu 03:59:10 PM 42.2289 -72.5028 216° Southwest 98 113 1,100 -889 Descending Boston Center

Login

Don't have an account? Register now (free) for customized features, flight alerts, and more!